Time;durP1;ratioP1;P1;durP2;ratioP2;P2;SDS_P1;SDS_P2;PMS_P1;PMS_P2;Temp;Humidity;BMP_temperature;BMP_pressure;BME280_temperature;BME280_humidity;BME280_pressure;Samples;Min_cycle;Max_cycle;Signal;HPM_P1;HPM_P2
2022/12/11 00:01:21;;;;;;;46.15;6.97;;;;;;;;;;5034439;28;20021;-51
2022/12/11 00:03:48;;;;;;;50.75;8.05;;;;;;;;;;5034249;28;20037;-50
2022/12/11 00:06:17;;;;;;;40.72;6.70;;;;;;;;;;5034247;28;20104;-48
2022/12/11 00:08:44;;;;;;;39.17;6.45;;;;;;;;;;5034181;28;20184;-51
2022/12/11 00:11:13;;;;;;;37.70;7.00;;;;;;;;;;5034284;28;20483;-50
2022/12/11 00:13:40;;;;;;;38.55;7.65;;;;;;;;;;5033974;28;20407;-50
2022/12/11 00:16:07;;;;;;;44.67;7.25;;;;;;;;;;5034282;28;20021;-50
2022/12/11 00:18:34;;;;;;;38.65;7.32;;;;;;;;;;5033624;28;20411;-48
2022/12/11 00:21:04;;;;;;;31.75;7.00;;;;;;;;;;5034036;28;20022;-53
2022/12/11 00:23:31;;;;;;;43.40;6.10;;;;;;;;;;5033213;28;20053;-47
2022/12/11 00:25:58;;;;;;;36.13;6.43;;;;;;;;;;5032764;28;20021;-54
2022/12/11 00:28:25;;;;;;;47.92;7.13;;;;;;;;;;5032451;28;20031;-54
2022/12/11 00:30:52;;;;;;;45.08;7.35;;;;;;;;;;5023804;28;20032;-46
2022/12/11 00:33:19;;;;;;;68.95;8.45;;;;;;;;;;5032725;28;20033;-48
2022/12/11 00:35:47;;;;;;;89.85;10.88;;;;;;;;;;5032624;28;20040;-52
2022/12/11 00:38:18;;;;;;;69.38;8.73;;;;;;;;;;5033811;28;20033;-51
2022/12/11 00:40:45;;;;;;;72.93;8.82;;;;;;;;;;5033187;28;20037;-52
2022/12/11 00:43:13;;;;;;;63.25;8.05;;;;;;;;;;5033688;28;20057;-47
2022/12/11 00:45:42;;;;;;;62.92;8.43;;;;;;;;;;5033480;28;20040;-52
2022/12/11 00:48:09;;;;;;;77.15;9.05;;;;;;;;;;5033053;28;20028;-44
2022/12/11 00:50:37;;;;;;;83.05;9.23;;;;;;;;;;5033840;28;20353;-52
2022/12/11 00:53:04;;;;;;;93.93;9.73;;;;;;;;;;5033610;28;20026;-47
2022/12/11 00:55:32;;;;;;;72.10;9.50;;;;;;;;;;5032275;28;20042;-48
2022/12/11 00:57:59;;;;;;;69.25;7.65;;;;;;;;;;5031861;28;20357;-50
2022/12/11 01:00:26;;;;;;;67.30;7.75;;;;;;;;;;5032033;28;20026;-50
2022/12/11 01:02:53;;;;;;;44.58;5.35;;;;;;;;;;5031655;28;20503;-52
2022/12/11 01:05:20;;;;;;;42.20;5.22;;;;;;;;;;5032074;28;20128;-47
2022/12/11 01:07:47;;;;;;;33.83;4.43;;;;;;;;;;5030974;28;20092;-49
2022/12/11 01:10:24;;;;;;;26.10;4.28;;;;;;;;;;5031723;28;20404;-48
2022/12/11 01:12:57;;;;;;;31.00;3.72;;;;;;;;;;5030366;28;20029;-48
2022/12/11 01:15:26;;;;;;;26.85;3.95;;;;;;;;;;5030419;28;20029;-48
2022/12/11 01:17:53;;;;;;;26.77;3.88;;;;;;;;;;5030962;28;20109;-49
2022/12/11 01:20:21;;;;;;;30.80;3.58;;;;;;;;;;5031011;28;20044;-49
2022/12/11 01:22:48;;;;;;;33.17;4.15;;;;;;;;;;5030492;28;20041;-49
2022/12/11 01:25:15;;;;;;;28.98;3.88;;;;;;;;;;5030348;28;20108;-54
2022/12/11 01:27:42;;;;;;;29.65;4.20;;;;;;;;;;5031003;28;20080;-52
2022/12/11 01:30:10;;;;;;;30.73;3.70;;;;;;;;;;5032195;28;20083;-47
2022/12/11 01:32:37;;;;;;;21.73;3.17;;;;;;;;;;5031428;28;20048;-47
2022/12/11 01:35:05;;;;;;;27.35;4.25;;;;;;;;;;5031281;28;20034;-50
2022/12/11 01:37:32;;;;;;;36.42;4.97;;;;;;;;;;5032433;28;20033;-49
2022/12/11 01:40:00;;;;;;;36.42;5.25;;;;;;;;;;5032360;28;20053;-47
2022/12/11 01:42:28;;;;;;;26.40;4.00;;;;;;;;;;5032384;28;20033;-49
2022/12/11 01:45:13;;;;;;;21.02;3.95;;;;;;;;;;5032080;28;20041;-50
2022/12/11 01:47:43;;;;;;;27.20;3.88;;;;;;;;;;5031516;28;20483;-46
2022/12/11 01:50:10;;;;;;;31.35;3.85;;;;;;;;;;5032212;28;20384;-48
2022/12/11 01:52:37;;;;;;;36.92;5.60;;;;;;;;;;5031975;28;20025;-48
2022/12/11 01:55:04;;;;;;;33.97;4.47;;;;;;;;;;5030115;28;20033;-48
2022/12/11 01:57:31;;;;;;;25.50;3.90;;;;;;;;;;5031780;28;20079;-49
2022/12/11 01:59:58;;;;;;;17.70;3.10;;;;;;;;;;5031765;28;20077;-49
2022/12/11 02:02:29;;;;;;;21.73;3.08;;;;;;;;;;5031153;28;20029;-52
2022/12/11 02:04:56;;;;;;;17.42;3.22;;;;;;;;;;5040526;28;20027;-50
2022/12/11 02:07:23;;;;;;;23.25;2.95;;;;;;;;;;5038665;28;20052;-51
2022/12/11 02:09:50;;;;;;;17.90;2.50;;;;;;;;;;5039919;28;20500;-56
2022/12/11 02:12:21;;;;;;;21.17;2.53;;;;;;;;;;5030861;28;20026;-51
2022/12/11 02:15:06;;;;;;;30.77;3.17;;;;;;;;;;5031202;28;20568;-52
2022/12/11 02:17:40;;;;;;;23.70;2.33;;;;;;;;;;5030181;28;20118;-52
2022/12/11 02:20:11;;;;;;;17.33;2.22;;;;;;;;;;5031730;28;20032;-52
2022/12/11 02:22:56;;;;;;;18.20;2.33;;;;;;;;;;5028222;28;20491;-52
2022/12/11 02:28:41;;;;;;;15.43;2.22;;;;;;;;;;4970453;22;20045;-46
2022/12/11 02:31:14;;;;;;;13.10;2.10;;;;;;;;;;5016687;28;20041;-47
2022/12/11 02:33:47;;;;;;;13.02;2.03;;;;;;;;;;5039789;28;20041;-48
2022/12/11 02:36:17;;;;;;;10.10;1.58;;;;;;;;;;5041097;28;20434;-49
2022/12/11 02:38:49;;;;;;;11.60;1.60;;;;;;;;;;5023400;28;20359;-54
2022/12/11 02:41:18;;;;;;;15.80;2.17;;;;;;;;;;5043460;28;20488;-53
2022/12/11 02:43:45;;;;;;;15.10;1.63;;;;;;;;;;5042618;28;20024;-48
2022/12/11 02:46:14;;;;;;;12.85;2.08;;;;;;;;;;5040853;28;20063;-48
2022/12/11 02:48:42;;;;;;;11.52;2.08;;;;;;;;;;5040852;28;20498;-50
2022/12/11 02:51:09;;;;;;;9.63;1.70;;;;;;;;;;5022604;28;20443;-47
2022/12/11 02:53:38;;;;;;;12.52;1.90;;;;;;;;;;5039193;28;20026;-52
2022/12/11 02:56:18;;;;;;;13.98;1.65;;;;;;;;;;5042073;28;20096;-47
2022/12/11 02:58:48;;;;;;;16.00;2.70;;;;;;;;;;5049567;28;20025;-46
2022/12/11 03:01:15;;;;;;;18.38;2.67;;;;;;;;;;5052831;28;20108;-45
2022/12/11 03:03:42;;;;;;;35.58;3.70;;;;;;;;;;5053031;28;20104;-49
2022/12/11 03:06:14;;;;;;;23.92;2.72;;;;;;;;;;5053234;28;20150;-48
2022/12/11 03:08:41;;;;;;;20.73;3.38;;;;;;;;;;5043778;28;20485;-53
2022/12/11 03:11:11;;;;;;;20.52;2.33;;;;;;;;;;5035055;28;20022;-49
2022/12/11 03:13:38;;;;;;;27.35;2.78;;;;;;;;;;5046824;28;20033;-48
2022/12/11 03:16:10;;;;;;;27.60;3.28;;;;;;;;;;5053096;28;20044;-47
2022/12/11 03:18:40;;;;;;;15.23;2.38;;;;;;;;;;5050793;28;20021;-45
2022/12/11 03:21:37;;;;;;;38.30;4.00;;;;;;;;;;5033208;28;20554;-50
2022/12/11 03:24:17;;;;;;;27.58;3.58;;;;;;;;;;4983757;28;20512;-48
2022/12/11 03:26:46;;;;;;;27.08;3.33;;;;;;;;;;5036726;28;20053;-48
2022/12/11 03:29:20;;;;;;;24.33;2.72;;;;;;;;;;5036951;28;20025;-52
2022/12/11 03:31:53;;;;;;;8.98;1.83;;;;;;;;;;5037006;28;20030;-45
2022/12/11 03:34:28;;;;;;;16.17;2.47;;;;;;;;;;5036942;28;20025;-45
2022/12/11 03:36:56;;;;;;;10.85;2.20;;;;;;;;;;5036482;28;20582;-47
2022/12/11 03:39:26;;;;;;;16.52;2.10;;;;;;;;;;5040075;28;20478;-51
2022/12/11 03:41:55;;;;;;;23.98;2.92;;;;;;;;;;5043096;28;20024;-45
2022/12/11 03:44:22;;;;;;;16.30;2.63;;;;;;;;;;5028372;28;20020;-47
2022/12/11 03:46:51;;;;;;;13.40;2.30;;;;;;;;;;5046974;28;20112;-45
2022/12/11 03:49:22;;;;;;;15.48;2.38;;;;;;;;;;5045913;28;20104;-52
2022/12/11 03:51:55;;;;;;;22.35;2.40;;;;;;;;;;5044716;28;20079;-48
2022/12/11 03:54:23;;;;;;;29.65;3.30;;;;;;;;;;5045436;28;20047;-46
2022/12/11 03:56:53;;;;;;;30.75;3.05;;;;;;;;;;5046863;28;20023;-50
2022/12/11 03:59:20;;;;;;;22.98;2.72;;;;;;;;;;5045882;28;20525;-54
2022/12/11 04:01:47;;;;;;;36.00;3.50;;;;;;;;;;5044794;28;20479;-45
2022/12/11 04:04:15;;;;;;;17.50;2.95;;;;;;;;;;5046639;28;20044;-45
2022/12/11 04:06:42;;;;;;;12.52;2.47;;;;;;;;;;5045930;28;20105;-48
2022/12/11 04:09:09;;;;;;;20.65;2.65;;;;;;;;;;5044698;28;20043;-44
2022/12/11 04:11:36;;;;;;;22.52;2.83;;;;;;;;;;5045875;28;20027;-46
2022/12/11 04:16:49;;;;;;;22.15;2.97;;;;;;;;;;5046316;28;20043;-47
2022/12/11 04:24:48;;;;;;;28.52;3.03;;;;;;;;;;5043728;28;20434;-44
2022/12/11 04:30:03;;;;;;;16.95;2.63;;;;;;;;;;5055958;28;20044;-45
2022/12/11 04:32:30;;;;;;;25.38;2.60;;;;;;;;;;5055322;28;20032;-45
2022/12/11 04:34:57;;;;;;;23.27;3.50;;;;;;;;;;5055707;28;20025;-45
2022/12/11 04:37:24;;;;;;;27.80;3.28;;;;;;;;;;5055721;28;20029;-45
2022/12/11 04:39:51;;;;;;;20.27;2.65;;;;;;;;;;5037615;28;20390;-48
2022/12/11 04:42:18;;;;;;;26.20;3.13;;;;;;;;;;5055798;28;20025;-45
2022/12/11 04:44:45;;;;;;;19.38;2.55;;;;;;;;;;5055830;28;20048;-45
2022/12/11 04:47:12;;;;;;;19.20;3.05;;;;;;;;;;5055521;28;20025;-45
2022/12/11 04:49:39;;;;;;;17.13;2.22;;;;;;;;;;5055330;28;20028;-45
2022/12/11 04:52:06;;;;;;;16.77;2.45;;;;;;;;;;5055567;28;20474;-45
2022/12/11 04:54:33;;;;;;;14.40;1.85;;;;;;;;;;5055354;28;20104;-45
2022/12/11 04:57:00;;;;;;;21.08;2.13;;;;;;;;;;5055286;28;20033;-45
2022/12/11 04:59:27;;;;;;;18.20;2.00;;;;;;;;;;5055485;28;20052;-45
2022/12/11 05:01:54;;;;;;;17.83;2.22;;;;;;;;;;5055375;28;20025;-45
2022/12/11 05:04:21;;;;;;;11.65;2.03;;;;;;;;;;5055374;28;20033;-45
2022/12/11 05:06:49;;;;;;;16.40;2.75;;;;;;;;;;5055249;28;20021;-44
2022/12/11 05:09:16;;;;;;;10.90;1.65;;;;;;;;;;5055167;28;20417;-45
2022/12/11 05:11:43;;;;;;;14.95;1.63;;;;;;;;;;5055237;28;20020;-45
2022/12/11 05:14:10;;;;;;;21.98;1.98;;;;;;;;;;5055241;28;20025;-45
2022/12/11 05:16:37;;;;;;;14.05;1.88;;;;;;;;;;5054995;28;20029;-45
2022/12/11 05:19:04;;;;;;;7.97;2.08;;;;;;;;;;5054969;28;20386;-45
2022/12/11 05:21:31;;;;;;;18.42;2.80;;;;;;;;;;5055083;28;20021;-45
2022/12/11 05:23:58;;;;;;;15.65;2.90;;;;;;;;;;5055062;28;20497;-45
2022/12/11 05:26:25;;;;;;;14.77;2.17;;;;;;;;;;5054737;28;20120;-45
2022/12/11 05:28:53;;;;;;;12.35;2.20;;;;;;;;;;5055005;28;20029;-45
2022/12/11 05:31:24;;;;;;;9.63;1.90;;;;;;;;;;5054787;28;20017;-45
2022/12/11 05:33:51;;;;;;;14.68;1.95;;;;;;;;;;5054648;28;20021;-45
2022/12/11 05:36:19;;;;;;;7.72;1.65;;;;;;;;;;5054736;28;20482;-46
2022/12/11 05:38:46;;;;;;;10.27;1.50;;;;;;;;;;5054748;28;20032;-45
2022/12/11 05:41:15;;;;;;;14.10;1.73;;;;;;;;;;5054532;28;20043;-47
2022/12/11 05:43:42;;;;;;;6.88;1.70;;;;;;;;;;5051633;28;20021;-45
2022/12/11 05:46:11;;;;;;;14.13;1.60;;;;;;;;;;5034164;28;20025;-45
2022/12/11 05:48:39;;;;;;;7.30;2.10;;;;;;;;;;5034560;28;20071;-45
2022/12/11 05:51:07;;;;;;;11.57;1.95;;;;;;;;;;5034474;28;20017;-45
2022/12/11 05:53:34;;;;;;;12.02;2.10;;;;;;;;;;5034356;28;20479;-45
2022/12/11 05:56:06;;;;;;;12.20;2.08;;;;;;;;;;5034253;28;20032;-45
2022/12/11 05:58:33;;;;;;;15.50;2.58;;;;;;;;;;5034312;28;20022;-47
2022/12/11 06:01:01;;;;;;;19.50;2.47;;;;;;;;;;5034423;28;20132;-45
2022/12/11 06:03:28;;;;;;;17.23;2.20;;;;;;;;;;5030793;28;20041;-45
2022/12/11 06:05:55;;;;;;;11.88;2.05;;;;;;;;;;5032836;28;20021;-45
2022/12/11 06:08:22;;;;;;;11.43;2.15;;;;;;;;;;5032805;28;20022;-46
2022/12/11 06:10:49;;;;;;;11.00;2.58;;;;;;;;;;5032889;28;20022;-45
2022/12/11 06:13:16;;;;;;;8.70;2.20;;;;;;;;;;5032721;28;20034;-45
2022/12/11 06:15:43;;;;;;;10.18;2.47;;;;;;;;;;5032641;28;20105;-45
2022/12/11 06:18:10;;;;;;;11.88;2.17;;;;;;;;;;5032915;28;20029;-45
2022/12/11 06:20:37;;;;;;;12.95;2.60;;;;;;;;;;5032623;28;20076;-45
2022/12/11 06:23:04;;;;;;;12.60;3.05;;;;;;;;;;5032604;28;20525;-45
2022/12/11 06:25:31;;;;;;;14.63;2.40;;;;;;;;;;5032550;28;20033;-45
2022/12/11 06:27:58;;;;;;;8.30;2.10;;;;;;;;;;5014504;28;20376;-45
2022/12/11 06:30:25;;;;;;;15.88;2.70;;;;;;;;;;5032447;28;20021;-45
2022/12/11 06:32:52;;;;;;;21.50;2.90;;;;;;;;;;5032463;28;20080;-45
2022/12/11 06:35:19;;;;;;;16.10;3.08;;;;;;;;;;5032195;28;20448;-45
2022/12/11 06:37:46;;;;;;;14.63;2.65;;;;;;;;;;5032262;28;20087;-45
2022/12/11 06:40:13;;;;;;;17.08;3.10;;;;;;;;;;5032143;28;20064;-47
2022/12/11 06:42:40;;;;;;;6.97;2.13;;;;;;;;;;5032181;28;20574;-46
2022/12/11 06:45:07;;;;;;;8.40;2.30;;;;;;;;;;5032294;28;20047;-48
2022/12/11 06:47:34;;;;;;;16.42;2.15;;;;;;;;;;5032096;28;20025;-46
2022/12/11 06:50:01;;;;;;;9.07;2.67;;;;;;;;;;5032170;28;20475;-47
2022/12/11 06:52:28;;;;;;;10.48;2.10;;;;;;;;;;5031996;28;20026;-50
2022/12/11 06:54:56;;;;;;;9.95;2.15;;;;;;;;;;5013979;28;20124;-46
2022/12/11 06:57:23;;;;;;;7.63;2.33;;;;;;;;;;5032005;28;20535;-46
2022/12/11 06:59:50;;;;;;;8.07;2.20;;;;;;;;;;5032074;28;20087;-49
2022/12/11 07:02:18;;;;;;;6.70;2.33;;;;;;;;;;5031982;28;20033;-47
2022/12/11 07:04:45;;;;;;;8.38;2.08;;;;;;;;;;5031994;28;20025;-49
2022/12/11 07:07:12;;;;;;;10.07;2.13;;;;;;;;;;5031923;28;20483;-51
2022/12/11 07:09:40;;;;;;;8.45;2.30;;;;;;;;;;5031751;28;20482;-48
2022/12/11 07:12:08;;;;;;;11.27;2.47;;;;;;;;;;5031955;28;20103;-46
2022/12/11 07:14:35;;;;;;;20.38;2.95;;;;;;;;;;5031646;28;20387;-50
2022/12/11 07:17:02;;;;;;;35.50;4.57;;;;;;;;;;5031722;28;20096;-47
2022/12/11 07:19:29;;;;;;;20.35;2.97;;;;;;;;;;5031731;28;20064;-48
2022/12/11 07:21:56;;;;;;;12.38;2.40;;;;;;;;;;5031717;28;20487;-45
2022/12/11 07:24:23;;;;;;;10.27;2.05;;;;;;;;;;5031770;28;20032;-45
2022/12/11 07:26:50;;;;;;;12.45;2.30;;;;;;;;;;5031551;28;20049;-45
2022/12/11 07:29:17;;;;;;;17.48;2.50;;;;;;;;;;5031741;28;20034;-45
2022/12/11 07:31:44;;;;;;;9.45;2.00;;;;;;;;;;5014010;28;20498;-45
2022/12/11 07:34:12;;;;;;;7.00;2.15;;;;;;;;;;5031557;28;20502;-45
2022/12/11 07:36:40;;;;;;;21.83;4.43;;;;;;;;;;5031487;28;20037;-48
2022/12/11 07:39:07;;;;;;;21.98;3.70;;;;;;;;;;5031631;28;20025;-45
2022/12/11 07:41:34;;;;;;;55.55;5.75;;;;;;;;;;5031516;28;20036;-46
2022/12/11 07:44:03;;;;;;;38.13;4.90;;;;;;;;;;5031610;28;20040;-46
2022/12/11 07:46:30;;;;;;;29.17;3.65;;;;;;;;;;5031415;28;20029;-46
2022/12/11 07:48:59;;;;;;;23.30;4.00;;;;;;;;;;5031654;28;20108;-45
2022/12/11 07:51:27;;;;;;;22.38;3.83;;;;;;;;;;5031385;28;20356;-46
2022/12/11 07:53:58;;;;;;;26.10;4.03;;;;;;;;;;5031535;28;20128;-45
2022/12/11 07:56:26;;;;;;;45.03;5.00;;;;;;;;;;5031466;28;20034;-45
2022/12/11 07:58:53;;;;;;;45.25;5.63;;;;;;;;;;5031199;28;20029;-45
2022/12/11 08:01:21;;;;;;;191.70;22.33;;;;;;;;;;5031502;28;20096;-46
2022/12/11 08:03:49;;;;;;;130.40;16.83;;;;;;;;;;5031463;28;20017;-45
2022/12/11 08:06:17;;;;;;;110.50;13.65;;;;;;;;;;5031267;28;20031;-45
2022/12/11 08:08:44;;;;;;;56.72;9.05;;;;;;;;;;5034130;28;20024;-45
2022/12/11 08:11:13;;;;;;;59.25;6.80;;;;;;;;;;5017123;28;20030;-48
2022/12/11 08:13:40;;;;;;;37.22;6.90;;;;;;;;;;5034933;28;20025;-45
2022/12/11 08:16:08;;;;;;;65.05;9.48;;;;;;;;;;5034904;28;20026;-45
2022/12/11 08:18:36;;;;;;;41.17;5.70;;;;;;;;;;5034931;28;20025;-47
2022/12/11 08:21:07;;;;;;;27.70;4.97;;;;;;;;;;5034760;28;20545;-45
2022/12/11 08:23:34;;;;;;;23.55;3.90;;;;;;;;;;5031449;28;20071;-48
2022/12/11 08:26:05;;;;;;;24.73;4.28;;;;;;;;;;5033196;28;20032;-47
2022/12/11 08:28:32;;;;;;;24.92;3.75;;;;;;;;;;5034633;28;20541;-47
2022/12/11 08:30:59;;;;;;;13.43;3.10;;;;;;;;;;5034663;28;20014;-46
2022/12/11 08:33:26;;;;;;;20.75;3.22;;;;;;;;;;5034663;28;20398;-47
2022/12/11 08:35:53;;;;;;;10.80;2.70;;;;;;;;;;5034356;28;20033;-46
2022/12/11 08:38:20;;;;;;;13.07;3.17;;;;;;;;;;5034609;28;20561;-46
2022/12/11 08:40:47;;;;;;;8.10;2.53;;;;;;;;;;5034454;28;20036;-48
2022/12/11 08:43:14;;;;;;;20.13;2.65;;;;;;;;;;5034527;28;20422;-46
2022/12/11 08:45:41;;;;;;;5.80;1.83;;;;;;;;;;5034345;28;20558;-48
2022/12/11 08:48:08;;;;;;;8.98;2.15;;;;;;;;;;5034306;28;20028;-46
2022/12/11 08:50:35;;;;;;;10.20;2.20;;;;;;;;;;5034276;28;20037;-45
2022/12/11 08:53:02;;;;;;;11.88;2.08;;;;;;;;;;5034225;28;20395;-46
2022/12/11 08:55:29;;;;;;;13.38;1.92;;;;;;;;;;5034144;28;20021;-46
2022/12/11 08:57:55;;;;;;;7.32;1.67;;;;;;;;;;5034178;28;20105;-47
2022/12/11 09:00:22;;;;;;;8.57;1.83;;;;;;;;;;5034198;28;20021;-46
2022/12/11 09:02:49;;;;;;;5.80;1.65;;;;;;;;;;5034126;28;20096;-45
2022/12/11 09:05:16;;;;;;;11.52;1.45;;;;;;;;;;5034113;28;20064;-45
2022/12/11 09:07:43;;;;;;;22.17;1.92;;;;;;;;;;5034036;28;20033;-47
2022/12/11 09:10:10;;;;;;;23.98;2.03;;;;;;;;;;5033997;28;20022;-47
2022/12/11 09:12:37;;;;;;;10.98;1.10;;;;;;;;;;5034034;28;20033;-45
2022/12/11 09:15:05;;;;;;;8.52;1.70;;;;;;;;;;5033673;28;20041;-48
2022/12/11 09:17:32;;;;;;;12.77;1.33;;;;;;;;;;5033728;28;20033;-45
2022/12/11 09:19:59;;;;;;;17.00;1.70;;;;;;;;;;5033726;28;20030;-46
2022/12/11 09:22:25;;;;;;;19.35;1.80;;;;;;;;;;5033705;28;20022;-45
2022/12/11 09:24:52;;;;;;;13.95;1.38;;;;;;;;;;5033692;28;20029;-48
2022/12/11 09:27:20;;;;;;;17.70;1.58;;;;;;;;;;5033288;28;20064;-46
2022/12/11 09:29:47;;;;;;;19.95;1.90;;;;;;;;;;5033441;28;20040;-45
2022/12/11 09:32:14;;;;;;;14.57;1.70;;;;;;;;;;5033586;28;20026;-45
2022/12/11 09:34:41;;;;;;;12.50;1.50;;;;;;;;;;5033229;28;20030;-47
2022/12/11 09:37:08;;;;;;;10.90;1.30;;;;;;;;;;5033249;28;20032;-50
2022/12/11 09:39:35;;;;;;;14.73;1.50;;;;;;;;;;5033386;28;20022;-46
2022/12/11 09:42:11;;;;;;;8.45;1.20;;;;;;;;;;5033254;28;20048;-46
2022/12/11 09:45:05;;;;;;;10.00;0.80;;;;;;;;;;5033353;28;20428;-48
2022/12/11 09:47:38;;;;;;;30.48;2.30;;;;;;;;;;5030812;28;20034;-45
2022/12/11 09:50:12;;;;;;;19.60;1.42;;;;;;;;;;5033205;28;20025;-45
2022/12/11 09:53:18;;;;;;;10.95;1.70;;;;;;;;;;5033067;28;20113;-45
2022/12/11 09:56:03;;;;;;;13.20;1.45;;;;;;;;;;4952675;29;20035;-46
2022/12/11 09:58:53;;;;;;;8.07;1.13;;;;;;;;;;4952536;29;20058;-47
2022/12/11 10:01:39;;;;;;;9.65;1.30;;;;;;;;;;4978775;28;20041;-46
2022/12/11 10:04:24;;;;;;;16.33;1.52;;;;;;;;;;5032871;28;20031;-45
2022/12/11 10:07:12;;;;;;;14.15;1.52;;;;;;;;;;5032612;28;20038;-45
2022/12/11 10:09:39;;;;;;;7.53;1.23;;;;;;;;;;5032834;28;20064;-45
2022/12/11 10:12:18;;;;;;;5.05;1.10;;;;;;;;;;5032736;28;20091;-45
2022/12/11 10:15:04;;;;;;;13.55;1.52;;;;;;;;;;5032584;28;20030;-45
2022/12/11 10:17:36;;;;;;;14.00;1.27;;;;;;;;;;5032558;28;20117;-46
2022/12/11 10:20:23;;;;;;;12.02;1.27;;;;;;;;;;5032532;28;20103;-45
2022/12/11 10:22:52;;;;;;;16.77;1.65;;;;;;;;;;5032547;28;20029;-47
2022/12/11 10:25:21;;;;;;;16.00;1.30;;;;;;;;;;5032402;28;20029;-46
2022/12/11 10:27:49;;;;;;;11.73;1.40;;;;;;;;;;5032323;28;20499;-45
2022/12/11 10:30:16;;;;;;;16.85;1.48;;;;;;;;;;5031826;28;20098;-49
2022/12/11 10:32:51;;;;;;;16.55;1.52;;;;;;;;;;5032467;28;20052;-46
2022/12/11 10:35:20;;;;;;;22.50;2.75;;;;;;;;;;5014291;28;20037;-46
2022/12/11 10:37:47;;;;;;;21.65;2.20;;;;;;;;;;5032288;28;20025;-45
2022/12/11 10:40:14;;;;;;;14.57;1.48;;;;;;;;;;5032291;28;20125;-45
2022/12/11 10:42:52;;;;;;;7.10;1.42;;;;;;;;;;5032299;28;20479;-47
2022/12/11 10:45:19;;;;;;;32.70;2.83;;;;;;;;;;5032147;28;20108;-46
2022/12/11 10:47:45;;;;;;;16.63;1.77;;;;;;;;;;5032116;28;20478;-45
2022/12/11 10:50:23;;;;;;;16.98;1.77;;;;;;;;;;5032219;28;20036;-45
2022/12/11 10:52:51;;;;;;;7.00;0.85;;;;;;;;;;5032167;28;20491;-45
2022/12/11 10:55:22;;;;;;;9.48;1.50;;;;;;;;;;5031997;28;20080;-45
2022/12/11 10:58:04;;;;;;;29.90;2.45;;;;;;;;;;5031999;28;20025;-45
2022/12/11 11:00:31;;;;;;;19.10;1.52;;;;;;;;;;5031996;28;20018;-45
2022/12/11 11:02:58;;;;;;;34.20;2.50;;;;;;;;;;5031925;28;20109;-45
2022/12/11 11:05:30;;;;;;;22.25;2.30;;;;;;;;;;5031881;28;20030;-47
2022/12/11 11:08:04;;;;;;;17.25;1.67;;;;;;;;;;5031802;28;20076;-45
2022/12/11 11:10:31;;;;;;;40.67;2.95;;;;;;;;;;5031935;28;20382;-45
2022/12/11 11:13:02;;;;;;;52.30;5.00;;;;;;;;;;5031790;28;20546;-46
2022/12/11 11:15:30;;;;;;;21.67;2.17;;;;;;;;;;5031599;28;20039;-45
2022/12/11 11:18:00;;;;;;;14.30;1.90;;;;;;;;;;5031640;28;20022;-45
2022/12/11 11:20:28;;;;;;;22.35;1.75;;;;;;;;;;5031730;28;20101;-45
2022/12/11 11:23:00;;;;;;;71.10;6.65;;;;;;;;;;5031789;28;20045;-46
2022/12/11 11:25:28;;;;;;;66.70;6.47;;;;;;;;;;5031635;28;20064;-46
2022/12/11 11:28:03;;;;;;;50.00;3.63;;;;;;;;;;5031587;28;20080;-44
2022/12/11 11:30:35;;;;;;;37.92;2.50;;;;;;;;;;5031737;28;20025;-45
2022/12/11 11:33:13;;;;;;;36.03;3.90;;;;;;;;;;5031811;28;20053;-45
2022/12/11 11:35:51;;;;;;;94.53;7.60;;;;;;;;;;5031452;28;20399;-46
2022/12/11 11:38:19;;;;;;;101.28;9.70;;;;;;;;;;5031512;28;20022;-47
2022/12/11 11:40:56;;;;;;;68.55;5.03;;;;;;;;;;5011938;28;20040;-46
2022/12/11 11:43:32;;;;;;;50.53;4.10;;;;;;;;;;5013929;28;20025;-46
2022/12/11 11:46:02;;;;;;;66.40;6.03;;;;;;;;;;5015654;28;20049;-46
2022/12/11 11:48:38;;;;;;;67.93;5.70;;;;;;;;;;5015672;28;20049;-46
2022/12/11 11:51:28;;;;;;;57.38;6.57;;;;;;;;;;4997744;28;20639;-46
2022/12/11 11:53:57;;;;;;;62.47;5.70;;;;;;;;;;5007847;28;20034;-47
2022/12/11 11:56:33;;;;;;;38.25;3.67;;;;;;;;;;5015403;28;20057;-46
2022/12/11 11:59:01;;;;;;;26.15;2.78;;;;;;;;;;5015432;28;20030;-45
2022/12/11 12:01:28;;;;;;;35.72;3.53;;;;;;;;;;5015318;28;20041;-46
2022/12/11 12:03:56;;;;;;;35.70;3.42;;;;;;;;;;5015442;28;20022;-45
2022/12/11 12:06:52;;;;;;;32.30;2.88;;;;;;;;;;5015238;28;20030;-46
2022/12/11 12:09:19;;;;;;;32.30;2.70;;;;;;;;;;5002670;28;20571;-47
2022/12/11 12:12:11;;;;;;;38.97;3.53;;;;;;;;;;5015079;28;20029;-46
2022/12/11 12:15:00;;;;;;;21.93;1.90;;;;;;;;;;5015230;28;20038;-44
2022/12/11 12:17:34;;;;;;;23.45;2.65;;;;;;;;;;5015165;28;20030;-45
2022/12/11 12:20:20;;;;;;;21.92;1.90;;;;;;;;;;5014955;28;20175;-47
2022/12/11 12:22:57;;;;;;;33.33;2.97;;;;;;;;;;5015122;28;20026;-47
2022/12/11 12:25:37;;;;;;;53.25;3.92;;;;;;;;;;5014982;28;20030;-47
2022/12/11 12:28:22;;;;;;;64.15;4.50;;;;;;;;;;5014742;28;20092;-45
2022/12/11 12:31:07;;;;;;;32.53;3.33;;;;;;;;;;5014953;28;20057;-44
2022/12/11 12:33:51;;;;;;;31.67;3.25;;;;;;;;;;5014790;28;20022;-48
2022/12/11 12:36:24;;;;;;;41.00;4.63;;;;;;;;;;5014659;28;20122;-45
2022/12/11 12:39:14;;;;;;;47.95;4.55;;;;;;;;;;5014474;28;20037;-52
2022/12/11 12:41:45;;;;;;;31.85;3.70;;;;;;;;;;5008303;28;20037;-46
2022/12/11 12:44:14;;;;;;;49.22;3.15;;;;;;;;;;5014753;28;20111;-46
2022/12/11 12:46:59;;;;;;;30.45;3.53;;;;;;;;;;5021922;28;20028;-46
2022/12/11 12:49:42;;;;;;;59.28;5.18;;;;;;;;;;5043740;28;20163;-45
2022/12/11 12:52:21;;;;;;;34.25;2.88;;;;;;;;;;5041788;28;20021;-45
2022/12/11 12:57:37;;;;;;;18.83;2.60;;;;;;;;;;5054372;28;20091;-51
2022/12/11 13:00:07;;;;;;;29.80;3.90;;;;;;;;;;5050979;28;20492;-46
2022/12/11 13:02:49;;;;;;;50.20;5.20;;;;;;;;;;5014199;28;20030;-45
2022/12/11 13:05:21;;;;;;;34.57;3.57;;;;;;;;;;5013986;28;20511;-47
2022/12/11 13:07:53;;;;;;;41.75;4.65;;;;;;;;;;5014005;28;20109;-45
2022/12/11 13:10:19;;;;;;;;;;;;;;;;;;5022555;28;20119;-46
2022/12/11 13:12:46;;;;;;;31.83;3.28;;;;;;;;;;5044551;28;20374;-52
2022/12/11 13:15:34;;;;;;;28.48;2.83;;;;;;;;;;5050314;28;20494;-49
2022/12/11 13:18:02;;;;;;;22.00;2.33;;;;;;;;;;5048017;28;20091;-49
2022/12/11 13:20:31;;;;;;;21.70;2.38;;;;;;;;;;5036167;28;20025;-50
2022/12/11 13:23:08;;;;;;;33.10;2.97;;;;;;;;;;5033662;28;20109;-49
2022/12/11 13:25:47;;;;;;;31.58;3.38;;;;;;;;;;5033279;28;20479;-47
2022/12/11 13:28:23;;;;;;;21.88;2.55;;;;;;;;;;5033440;28;20103;-46
2022/12/11 13:31:09;;;;;;;25.35;2.90;;;;;;;;;;5033524;28;20430;-48
2022/12/11 13:33:40;;;;;;;22.42;2.58;;;;;;;;;;5033505;28;20388;-46
2022/12/11 13:36:10;;;;;;;19.80;2.30;;;;;;;;;;5032250;28;20116;-47
2022/12/11 13:38:46;;;;;;;13.50;1.90;;;;;;;;;;5033262;28;20090;-48
2022/12/11 13:41:13;;;;;;;25.83;2.13;;;;;;;;;;5033154;28;20434;-46
2022/12/11 13:43:42;;;;;;;21.27;2.08;;;;;;;;;;5033145;28;20479;-49
2022/12/11 13:46:11;;;;;;;52.00;4.15;;;;;;;;;;5033164;28;20021;-48
2022/12/11 13:48:40;;;;;;;30.17;3.45;;;;;;;;;;5033144;28;20030;-47
2022/12/11 13:51:07;;;;;;;21.85;2.60;;;;;;;;;;5032911;28;20025;-49
2022/12/11 13:53:34;;;;;;;26.65;2.85;;;;;;;;;;5032861;28;20474;-48
2022/12/11 13:56:01;;;;;;;16.95;2.35;;;;;;;;;;5032784;28;20034;-53
2022/12/11 13:58:29;;;;;;;21.55;2.00;;;;;;;;;;5032885;28;20483;-50
2022/12/11 14:01:12;;;;;;;26.42;2.70;;;;;;;;;;5032657;28;20383;-48
2022/12/11 14:03:38;;;;;;;;;;;;;;;;;;5029146;28;20375;-48
2022/12/11 14:06:09;;;;;;;24.38;1.85;;;;;;;;;;5019077;28;20297;-46
2022/12/11 14:08:37;;;;;;;19.90;2.20;;;;;;;;;;5051646;28;20103;-45
2022/12/11 14:11:05;;;;;;;18.15;2.05;;;;;;;;;;5050850;28;20082;-45
2022/12/11 14:13:34;;;;;;;17.05;2.58;;;;;;;;;;5045581;28;20056;-49
2022/12/11 14:16:01;;;;;;;42.75;4.20;;;;;;;;;;5044119;28;20041;-45
2022/12/11 14:18:30;;;;;;;40.00;4.15;;;;;;;;;;5030273;28;20029;-45
2022/12/11 14:21:01;;;;;;;336.08;19.17;;;;;;;;;;5031572;28;20029;-47
2022/12/11 14:23:32;;;;;;;104.22;7.80;;;;;;;;;;5031989;28;20116;-44
2022/12/11 14:26:01;;;;;;;77.22;6.53;;;;;;;;;;5030982;28;20022;-48
2022/12/11 14:28:29;;;;;;;73.47;5.88;;;;;;;;;;5031660;28;20041;-45
2022/12/11 14:31:01;;;;;;;41.72;4.50;;;;;;;;;;5032264;28;20033;-44
2022/12/11 14:34:03;;;;;;;38.45;4.65;;;;;;;;;;5031392;28;20036;-45
2022/12/11 14:36:30;;;;;;;34.70;3.25;;;;;;;;;;4931881;29;20070;-45
2022/12/11 14:39:10;;;;;;;30.02;3.50;;;;;;;;;;5012565;28;20037;-47
2022/12/11 14:41:49;;;;;;;35.85;3.85;;;;;;;;;;5014445;28;20505;-47
2022/12/11 14:44:17;;;;;;;44.70;4.35;;;;;;;;;;5030544;28;20036;-47
2022/12/11 14:46:46;;;;;;;38.25;4.03;;;;;;;;;;5031654;28;20379;-47
2022/12/11 14:49:23;;;;;;;34.22;3.85;;;;;;;;;;5031374;28;20383;-46
2022/12/11 14:51:50;;;;;;;37.42;4.32;;;;;;;;;;5029894;28;20049;-47
2022/12/11 14:54:37;;;;;;;32.22;4.38;;;;;;;;;;5030096;28;20043;-45
2022/12/11 14:57:05;;;;;;;19.95;3.40;;;;;;;;;;5031611;28;20108;-46
2022/12/11 14:59:36;;;;;;;26.75;3.92;;;;;;;;;;5031682;28;20033;-47
2022/12/11 15:02:04;;;;;;;35.60;3.67;;;;;;;;;;5030516;28;20526;-48
2022/12/11 15:04:32;;;;;;;22.02;3.72;;;;;;;;;;5030406;28;20021;-47
2022/12/11 15:06:59;;;;;;;30.70;3.50;;;;;;;;;;5031277;28;20032;-50